Crosswicks, New Jersey
Current Conditions -  °F | °C
As of 8:23 AM on Thursday 30 Oct 2014 (Local Time) from KWRI Reporting Station
Haze Haze  
Wind Chill: 45°   Ceiling: 200
Heat Index: 45°   Visibility: 3mi
Dew Point: 45°   Wind: 2mph
Humidity: 100%   Direction: 350°N
Pressure: 29.99"   Gusts: NA
Location:  40.15°N, 74.65°W
Report Text: KWRI 301223Z AUTO 35002KT 3SM BR OVC002 07/07 A2999 RMK AO2
Loading
Personal Weather Stations






























Interactive Weather Map
Tropical Storm Tracking
New forecast layout! Learn more

10-Day Weather Forecast

Advertisements
Track Severe Weather on mobile